createdAt,value
2022-08-26T00:01:06.696Z,13.97
2022-08-26T00:03:37.433Z,13.40
2022-08-26T00:06:08.398Z,14.63
2022-08-26T00:08:37.678Z,15.07
2022-08-26T00:11:07.475Z,14.17
2022-08-26T00:13:38.244Z,14.27
2022-08-26T00:16:07.987Z,14.30
2022-08-26T00:18:41.394Z,14.80
2022-08-26T00:21:11.583Z,14.37
2022-08-26T00:23:40.854Z,15.47
2022-08-26T00:26:11.088Z,14.30
2022-08-26T00:28:40.331Z,14.30
2022-08-26T00:31:10.920Z,14.00
2022-08-26T00:33:40.076Z,14.10
2022-08-26T00:36:20.052Z,13.87
2022-08-26T00:38:49.380Z,14.93
2022-08-26T00:41:21.030Z,16.80
2022-08-26T00:43:50.399Z,15.60
2022-08-26T00:46:23.101Z,16.47
2022-08-26T00:48:58.726Z,15.90
2022-08-26T00:51:29.970Z,14.67
2022-08-26T00:54:04.145Z,14.80
2022-08-26T00:56:39.283Z,14.07
2022-08-26T00:59:11.185Z,14.77
2022-08-26T01:01:43.105Z,13.40
2022-08-26T01:04:19.228Z,15.47
2022-08-26T01:06:51.804Z,15.53
2022-08-26T01:09:22.376Z,15.30
2022-08-26T01:11:54.246Z,15.10
2022-08-26T01:14:23.940Z,16.13
2022-08-26T01:16:52.651Z,15.83
2022-08-26T01:19:26.352Z,15.40
2022-08-26T01:21:59.605Z,16.50
2022-08-26T01:24:31.592Z,16.10
2022-08-26T01:27:03.728Z,16.20
2022-08-26T01:29:35.235Z,19.10
2022-08-26T01:32:05.265Z,16.63
2022-08-26T01:34:36.516Z,16.83
2022-08-26T01:37:08.820Z,16.60
2022-08-26T01:39:48.327Z,16.37
2022-08-26T01:42:19.428Z,16.40
2022-08-26T01:44:52.278Z,16.47
2022-08-26T01:47:24.882Z,16.37
2022-08-26T01:49:57.110Z,16.20
2022-08-26T01:52:29.056Z,17.30
2022-08-26T01:55:00.333Z,17.37
2022-08-26T01:57:29.912Z,16.73
2022-08-26T02:00:02.888Z,18.33
2022-08-26T02:02:31.795Z,17.43
2022-08-26T02:05:04.809Z,17.33
2022-08-26T02:07:34.664Z,16.90
2022-08-26T02:10:05.458Z,17.90
2022-08-26T02:12:34.997Z,17.37
2022-08-26T02:15:07.350Z,17.30
2022-08-26T02:17:41.149Z,16.50
2022-08-26T02:20:13.293Z,16.47
2022-08-26T02:22:45.235Z,17.70
2022-08-26T02:25:21.114Z,16.07
2022-08-26T02:27:49.799Z,16.97
2022-08-26T02:30:21.515Z,15.47
2022-08-26T02:32:51.956Z,16.20
2022-08-26T02:35:22.456Z,16.73
2022-08-26T02:37:52.222Z,15.73
2022-08-26T02:40:26.173Z,16.30
2022-08-26T02:43:05.834Z,16.17
2022-08-26T02:45:37.824Z,16.20
2022-08-26T02:48:11.533Z,16.27
2022-08-26T02:50:41.252Z,15.57
2022-08-26T02:53:12.442Z,16.73
2022-08-26T02:55:43.886Z,16.13
2022-08-26T02:58:12.745Z,15.73
2022-08-26T03:00:52.742Z,16.80
2022-08-26T03:03:23.691Z,17.23
2022-08-26T03:05:52.654Z,17.20
2022-08-26T03:08:22.402Z,17.17
2022-08-26T03:10:53.219Z,16.60
2022-08-26T03:13:21.931Z,18.03
2022-08-26T03:15:50.808Z,16.10
2022-08-26T03:18:19.582Z,16.17
2022-08-26T03:20:49.308Z,15.53
2022-08-26T03:23:18.492Z,17.40
2022-08-26T03:25:52.940Z,18.20
2022-08-26T03:28:21.912Z,16.97
2022-08-26T03:30:49.482Z,16.37
2022-08-26T03:33:19.334Z,19.00
2022-08-26T03:35:50.607Z,16.80
2022-08-26T03:38:20.701Z,17.70
2022-08-26T03:40:49.630Z,19.30
2022-08-26T03:43:21.663Z,17.40
2022-08-26T03:45:50.259Z,16.50
2022-08-26T03:48:20.033Z,18.17
2022-08-26T03:50:48.811Z,17.30
2022-08-26T03:53:19.900Z,16.80
2022-08-26T03:55:51.906Z,17.70
2022-08-26T03:58:24.384Z,17.03
2022-08-26T04:00:55.588Z,18.37
2022-08-26T04:03:38.762Z,17.70
2022-08-26T04:06:08.342Z,17.57
2022-08-26T04:08:38.401Z,17.30
2022-08-26T04:11:08.077Z,17.20
2022-08-26T04:13:40.213Z,18.33
2022-08-26T04:16:09.090Z,18.30
2022-08-26T04:18:40.563Z,17.63
2022-08-26T04:21:15.697Z,18.00
2022-08-26T04:23:47.547Z,19.70
2022-08-26T04:26:17.071Z,17.77
2022-08-26T04:28:47.038Z,19.37
2022-08-26T04:31:17.991Z,18.70
2022-08-26T04:33:50.062Z,17.70
2022-08-26T04:36:19.898Z,21.53
2022-08-26T04:38:50.608Z,18.23
2022-08-26T04:41:20.839Z,18.07
2022-08-26T04:43:50.864Z,20.23
2022-08-26T04:46:23.337Z,20.53
2022-08-26T04:48:52.839Z,19.80
2022-08-26T04:51:28.131Z,20.20
2022-08-26T04:53:57.337Z,18.33
2022-08-26T04:56:26.971Z,19.53
2022-08-26T04:58:57.360Z,21.50
2022-08-26T05:01:26.126Z,19.43
2022-08-26T05:03:55.037Z,20.10
2022-08-26T05:06:23.659Z,23.17
2022-08-26T05:08:53.379Z,23.67
2022-08-26T05:11:22.479Z,23.10
2022-08-26T05:13:51.468Z,21.73
2022-08-26T05:16:21.557Z,22.40
2022-08-26T05:18:50.577Z,22.57
2022-08-26T05:21:21.207Z,21.47
2022-08-26T05:23:51.582Z,23.70
2022-08-26T05:26:23.120Z,22.93
2022-08-26T05:28:54.821Z,21.47
2022-08-26T05:31:28.547Z,21.80
2022-08-26T05:33:58.123Z,20.83
2022-08-26T05:36:29.797Z,21.07
2022-08-26T05:38:59.433Z,22.20
2022-08-26T05:41:34.432Z,24.50
2022-08-26T05:44:09.356Z,21.33
2022-08-26T05:46:40.808Z,21.53
2022-08-26T05:49:12.842Z,21.23
2022-08-26T05:51:47.806Z,20.60
2022-08-26T05:54:21.723Z,20.57
2022-08-26T05:56:52.136Z,18.27
2022-08-26T05:59:24.207Z,19.40
2022-08-26T06:01:55.360Z,18.63
2022-08-26T06:04:27.084Z,17.30
2022-08-26T06:06:57.371Z,19.10
2022-08-26T06:09:27.063Z,18.77
2022-08-26T06:11:56.192Z,18.80
2022-08-26T06:14:26.187Z,17.07
2022-08-26T06:16:56.340Z,16.10
2022-08-26T06:19:25.876Z,15.67
2022-08-26T06:22:23.364Z,15.70
2022-08-26T06:25:09.892Z,15.57
2022-08-26T06:27:38.946Z,14.80
2022-08-26T06:30:10.148Z,14.40
2022-08-26T06:32:40.528Z,14.30
2022-08-26T06:35:12.121Z,14.20
2022-08-26T06:37:43.023Z,15.47
2022-08-26T06:40:12.700Z,13.67
2022-08-26T06:42:41.480Z,13.70
2022-08-26T06:45:10.910Z,13.70
2022-08-26T06:47:41.335Z,12.87
2022-08-26T06:50:10.573Z,13.87
2022-08-26T06:52:39.236Z,13.00
2022-08-26T06:55:08.660Z,13.97
2022-08-26T06:57:39.847Z,14.33
2022-08-26T07:00:11.185Z,13.03
2022-08-26T07:02:46.847Z,13.10
2022-08-26T07:05:15.773Z,12.57
2022-08-26T07:07:44.458Z,12.00
2022-08-26T07:10:13.457Z,12.20
2022-08-26T07:12:42.130Z,11.40
2022-08-26T07:15:15.912Z,11.30
2022-08-26T07:17:47.771Z,10.95
2022-08-26T07:20:16.706Z,10.73
2022-08-26T07:22:45.798Z,10.77
2022-08-26T07:25:15.383Z,11.25
2022-08-26T07:27:44.941Z,10.23
2022-08-26T07:30:15.558Z,10.38
2022-08-26T07:32:46.195Z,11.48
2022-08-26T07:35:14.897Z,12.23
2022-08-26T07:37:45.881Z,10.82
2022-08-26T07:40:15.280Z,9.95
2022-08-26T07:42:44.987Z,9.77
2022-08-26T07:45:14.231Z,10.70
2022-08-26T07:47:43.364Z,10.60
2022-08-26T07:50:14.297Z,10.13
2022-08-26T07:52:44.144Z,10.82
2022-08-26T07:55:14.297Z,10.57
2022-08-26T07:57:42.926Z,9.90
2022-08-26T08:00:16.356Z,9.70
2022-08-26T08:02:46.430Z,9.38
2022-08-26T08:05:19.707Z,9.50
2022-08-26T08:07:53.533Z,9.57
2022-08-26T08:10:37.293Z,8.77
2022-08-26T08:13:09.980Z,8.88
2022-08-26T08:15:39.197Z,8.88
2022-08-26T08:18:15.638Z,9.30
2022-08-26T08:20:54.700Z,9.10
2022-08-26T08:23:34.985Z,8.43
2022-08-26T08:26:04.615Z,8.30
2022-08-26T08:28:33.771Z,8.13
2022-08-26T08:31:03.692Z,8.23
2022-08-26T08:33:34.068Z,8.40
2022-08-26T08:36:09.342Z,8.65
2022-08-26T08:38:38.068Z,9.68
2022-08-26T08:41:16.343Z,7.65
2022-08-26T08:43:48.264Z,7.78
2022-08-26T08:46:19.663Z,8.27
2022-08-26T08:48:53.014Z,8.00
2022-08-26T08:51:35.156Z,8.07
2022-08-26T08:54:04.540Z,7.40
2022-08-26T08:56:37.077Z,8.50
2022-08-26T08:59:14.509Z,8.23
2022-08-26T09:01:56.959Z,8.43
2022-08-26T09:04:52.145Z,7.32
2022-08-26T09:07:27.738Z,8.07
2022-08-26T09:10:00.222Z,7.60
2022-08-26T09:12:33.853Z,6.65
2022-08-26T09:15:25.484Z,7.95
2022-08-26T09:18:05.950Z,7.18
2022-08-26T09:20:45.822Z,7.05
2022-08-26T09:23:18.202Z,6.68
2022-08-26T09:25:49.884Z,7.45
2022-08-26T09:28:21.015Z,6.82
2022-08-26T09:31:01.636Z,7.00
2022-08-26T09:33:36.065Z,6.65
2022-08-26T09:36:27.182Z,6.13
2022-08-26T09:38:57.586Z,6.30
2022-08-26T09:41:31.923Z,6.35
2022-08-26T09:44:17.993Z,6.30
2022-08-26T09:46:55.720Z,6.85
2022-08-26T09:49:36.030Z,6.78
2022-08-26T09:52:17.294Z,5.80
2022-08-26T09:55:03.480Z,6.05
2022-08-26T09:57:36.055Z,6.25
2022-08-26T10:00:30.470Z,6.68
2022-08-26T10:03:00.603Z,7.65
2022-08-26T10:05:33.560Z,7.20
2022-08-26T10:08:17.511Z,6.57
2022-08-26T10:10:49.030Z,5.68
2022-08-26T10:13:29.617Z,6.50
2022-08-26T10:16:07.798Z,6.63
2022-08-26T10:18:43.986Z,6.47
2022-08-26T10:21:18.145Z,6.18
2022-08-26T10:23:51.518Z,6.90
2022-08-26T10:26:27.116Z,6.50
2022-08-26T10:29:06.463Z,6.07
2022-08-26T10:31:40.947Z,5.72
2022-08-26T10:34:14.013Z,6.78
2022-08-26T10:37:14.209Z,7.03
2022-08-26T10:39:55.246Z,6.10
2022-08-26T10:42:35.572Z,6.03
2022-08-26T10:45:11.975Z,5.38
2022-08-26T10:47:49.076Z,6.47
2022-08-26T10:50:19.136Z,4.78
2022-08-26T10:52:59.143Z,4.85
2022-08-26T10:55:37.611Z,6.00
2022-08-26T10:58:29.550Z,12.30
2022-08-26T11:01:23.966Z,5.32
2022-08-26T11:04:00.625Z,8.50
2022-08-26T11:06:31.524Z,5.60
2022-08-26T11:09:02.424Z,5.90
2022-08-26T11:11:49.184Z,6.05
2022-08-26T11:14:42.005Z,5.25
2022-08-26T11:17:58.331Z,6.10
2022-08-26T11:20:41.916Z,5.20
2022-08-26T11:23:50.624Z,5.18
2022-08-26T11:26:55.131Z,5.20
2022-08-26T11:30:02.469Z,4.80
2022-08-26T11:32:52.999Z,6.82
2022-08-26T11:35:48.713Z,4.35
2022-08-26T11:38:25.193Z,4.50
2022-08-26T11:41:07.581Z,4.15
2022-08-26T11:43:37.459Z,5.18
2022-08-26T11:46:09.202Z,4.32
2022-08-26T11:48:41.889Z,5.05
2022-08-26T11:51:13.400Z,4.38
2022-08-26T11:53:44.955Z,3.88
2022-08-26T11:56:25.966Z,3.95
2022-08-26T11:59:00.180Z,4.22
2022-08-26T12:01:32.462Z,3.67
2022-08-26T12:04:04.402Z,3.60
2022-08-26T12:06:42.013Z,3.95
2022-08-26T12:09:22.069Z,3.50
2022-08-26T12:11:51.315Z,3.55
2022-08-26T12:14:24.598Z,3.80
2022-08-26T12:16:54.957Z,4.13
2022-08-26T12:19:27.831Z,3.88
2022-08-26T12:22:02.243Z,4.43
2022-08-26T12:24:31.358Z,4.38
2022-08-26T12:27:16.140Z,3.70
2022-08-26T12:29:48.451Z,4.35
2022-08-26T12:32:19.931Z,3.67
2022-08-26T12:34:50.628Z,3.70
2022-08-26T12:37:20.285Z,4.10
2022-08-26T12:39:49.456Z,4.07
2022-08-26T12:42:41.747Z,3.75
2022-08-26T12:45:11.562Z,4.05
2022-08-26T12:47:44.309Z,3.75
2022-08-26T12:50:21.483Z,4.05
2022-08-26T12:52:59.172Z,3.75
2022-08-26T12:55:36.909Z,4.82
2022-08-26T12:58:25.139Z,3.83
2022-08-26T13:00:55.556Z,3.75
2022-08-26T13:03:44.174Z,5.20
2022-08-26T13:06:27.563Z,5.43
2022-08-26T13:08:58.626Z,4.32
2022-08-26T13:11:29.792Z,4.60
2022-08-26T13:14:02.058Z,4.40
2022-08-26T13:16:31.470Z,4.57
2022-08-26T13:19:03.116Z,3.58
2022-08-26T13:21:37.981Z,4.00
2022-08-26T13:24:12.052Z,4.20
2022-08-26T13:26:41.386Z,4.18
2022-08-26T13:29:11.209Z,3.97
2022-08-26T13:31:42.395Z,3.78
2022-08-26T13:34:13.033Z,5.80
2022-08-26T13:36:45.258Z,3.38
2022-08-26T13:39:14.719Z,4.03
2022-08-26T13:41:43.996Z,3.97
2022-08-26T13:44:12.772Z,4.20
2022-08-26T13:46:42.224Z,3.83
2022-08-26T13:49:11.407Z,4.68
2022-08-26T13:51:40.547Z,3.80
2022-08-26T13:54:10.882Z,4.15
2022-08-26T13:56:39.669Z,3.40
2022-08-26T13:59:08.680Z,4.10
2022-08-26T14:01:40.330Z,4.28
2022-08-26T14:04:09.834Z,3.55
2022-08-26T14:06:38.821Z,3.78
2022-08-26T14:09:07.514Z,3.85
2022-08-26T14:11:54.115Z,4.00
2022-08-26T14:14:23.720Z,4.05
2022-08-26T14:16:59.508Z,4.00
2022-08-26T14:19:29.862Z,4.30
2022-08-26T14:21:59.508Z,4.32
2022-08-26T14:24:28.399Z,3.60
2022-08-26T14:26:58.916Z,3.45
2022-08-26T14:29:27.718Z,3.47
2022-08-26T14:31:59.053Z,3.03
2022-08-26T14:34:27.870Z,3.28
2022-08-26T14:36:56.632Z,3.25
2022-08-26T14:39:25.656Z,3.38
2022-08-26T14:41:58.514Z,3.47
2022-08-26T14:44:29.586Z,3.60
2022-08-26T14:47:01.425Z,3.78
2022-08-26T14:49:31.488Z,3.97
2022-08-26T14:52:00.462Z,3.58
2022-08-26T14:54:29.624Z,3.50
2022-08-26T14:57:03.896Z,3.20
2022-08-26T14:59:34.504Z,3.33
2022-08-26T15:02:03.611Z,3.90
2022-08-26T15:04:32.366Z,3.63
2022-08-26T15:07:01.993Z,3.67
2022-08-26T15:09:31.777Z,3.70
2022-08-26T15:12:01.953Z,3.05
2022-08-26T15:14:32.993Z,3.65
2022-08-26T15:17:02.714Z,3.63
2022-08-26T15:19:32.011Z,3.53
2022-08-26T15:22:00.783Z,2.72
2022-08-26T15:24:30.366Z,3.25
2022-08-26T15:27:01.119Z,3.20
2022-08-26T15:29:29.995Z,3.38
2022-08-26T15:32:01.752Z,3.67
2022-08-26T15:34:30.701Z,3.50
2022-08-26T15:36:59.661Z,3.70
2022-08-26T15:39:28.431Z,3.83
2022-08-26T15:41:57.756Z,4.10
2022-08-26T15:44:28.463Z,4.05
2022-08-26T15:46:58.726Z,3.38
2022-08-26T15:49:28.933Z,4.10
2022-08-26T15:51:57.712Z,3.45
2022-08-26T15:54:26.518Z,3.90
2022-08-26T15:56:55.274Z,3.72
2022-08-26T15:59:24.525Z,3.97
2022-08-26T16:01:55.054Z,3.78
2022-08-26T16:04:23.979Z,3.95
2022-08-26T16:06:53.377Z,3.83
2022-08-26T16:09:24.464Z,3.55
2022-08-26T16:11:53.424Z,3.90
2022-08-26T16:14:22.223Z,3.75
2022-08-26T16:16:51.646Z,3.40
2022-08-26T16:19:21.943Z,3.10
2022-08-26T16:21:51.870Z,4.03
2022-08-26T16:24:26.012Z,3.53
2022-08-26T16:26:57.510Z,3.58
2022-08-26T16:29:26.419Z,3.13
2022-08-26T16:31:56.427Z,3.50
2022-08-26T16:34:26.903Z,3.53
2022-08-26T16:36:56.473Z,4.28
2022-08-26T16:39:25.235Z,3.72
2022-08-26T16:41:54.556Z,4.00
2022-08-26T16:44:23.487Z,3.57
2022-08-26T16:46:58.674Z,5.60
2022-08-26T16:49:29.344Z,3.43
2022-08-26T16:51:58.212Z,3.60
2022-08-26T16:54:27.603Z,3.77
2022-08-26T16:56:57.174Z,3.70
2022-08-26T16:59:26.110Z,4.10
2022-08-26T17:01:55.535Z,3.57
2022-08-26T17:04:25.444Z,3.60
2022-08-26T17:06:57.178Z,3.77
2022-08-26T17:09:27.683Z,3.40
2022-08-26T17:11:56.767Z,3.63
2022-08-26T17:14:28.295Z,3.73
2022-08-26T17:17:01.636Z,3.90
2022-08-26T17:19:30.625Z,4.57
2022-08-26T17:22:12.538Z,4.03
2022-08-26T17:24:41.461Z,3.70
2022-08-26T17:27:10.659Z,4.13
2022-08-26T17:29:39.523Z,3.70
2022-08-26T17:32:08.339Z,4.43
2022-08-26T17:34:39.502Z,3.80
2022-08-26T17:37:11.825Z,3.93
2022-08-26T17:39:44.164Z,5.00
2022-08-26T17:42:13.571Z,4.87
2022-08-26T17:44:42.777Z,5.43
2022-08-26T17:47:12.357Z,4.57
2022-08-26T17:49:41.107Z,4.40
2022-08-26T17:52:11.766Z,4.90
2022-08-26T17:54:41.120Z,4.90
2022-08-26T17:57:10.662Z,7.20
2022-08-26T17:59:41.000Z,5.80
2022-08-26T18:02:10.066Z,7.33
2022-08-26T18:04:38.680Z,6.07
2022-08-26T18:07:07.789Z,5.77
2022-08-26T18:09:38.066Z,5.73
2022-08-26T18:12:07.280Z,6.60
2022-08-26T18:14:36.586Z,6.20
2022-08-26T18:17:08.741Z,6.20
2022-08-26T18:19:38.202Z,7.50
2022-08-26T18:22:07.445Z,7.80
2022-08-26T18:24:38.218Z,6.77
2022-08-26T18:27:07.790Z,6.43
2022-08-26T18:29:37.416Z,6.00
2022-08-26T18:32:15.853Z,4.70
2022-08-26T18:34:44.999Z,5.33
2022-08-26T18:37:15.153Z,4.70
2022-08-26T18:39:46.624Z,4.80
2022-08-26T18:42:15.824Z,4.90
2022-08-26T18:44:44.628Z,4.90
2022-08-26T18:47:13.875Z,5.40
2022-08-26T18:49:42.876Z,5.40
2022-08-26T18:52:11.750Z,8.03
2022-08-26T18:54:41.510Z,6.33
2022-08-26T18:57:12.774Z,5.10
2022-08-26T18:59:43.088Z,5.03
2022-08-26T19:02:12.355Z,4.40
2022-08-26T19:04:41.670Z,5.40
2022-08-26T19:07:10.738Z,4.30
2022-08-26T19:09:39.626Z,4.47
2022-08-26T19:12:12.413Z,5.77
2022-08-26T19:14:41.974Z,5.20
2022-08-26T19:17:12.569Z,4.40
2022-08-26T19:19:41.907Z,5.37
2022-08-26T19:22:11.169Z,5.07
2022-08-26T19:24:40.856Z,5.30
2022-08-26T19:27:14.593Z,5.90
2022-08-26T19:29:45.818Z,5.53
2022-08-26T19:32:15.345Z,5.90
2022-08-26T19:34:44.987Z,5.43
2022-08-26T19:37:14.452Z,5.90
2022-08-26T19:39:43.670Z,5.93
2022-08-26T19:42:12.825Z,6.47
2022-08-26T19:44:59.258Z,5.47
2022-08-26T19:47:30.805Z,5.23
2022-08-26T19:50:00.195Z,5.47
2022-08-26T19:52:32.301Z,5.10
2022-08-26T19:55:03.265Z,5.40
2022-08-26T19:57:32.771Z,6.67
2022-08-26T20:00:02.888Z,6.50
2022-08-26T20:02:35.937Z,6.50
2022-08-26T20:05:07.047Z,7.20
2022-08-26T20:07:37.569Z,5.97
2022-08-26T20:10:08.853Z,6.97
2022-08-26T20:12:38.133Z,7.03
2022-08-26T20:15:08.556Z,6.57
2022-08-26T20:17:40.300Z,7.47
2022-08-26T20:20:33.729Z,7.07
2022-08-26T20:23:06.033Z,7.50
2022-08-26T20:25:35.848Z,7.70
2022-08-26T20:28:06.337Z,6.60
2022-08-26T20:30:35.944Z,10.10
2022-08-26T20:33:07.575Z,11.33
2022-08-26T20:35:36.882Z,7.80
2022-08-26T20:38:06.135Z,7.47
2022-08-26T20:40:35.965Z,7.83
2022-08-26T20:43:06.508Z,7.30
2022-08-26T20:45:35.658Z,9.10
2022-08-26T20:48:06.430Z,7.50
2022-08-26T20:50:35.393Z,8.37
2022-08-26T20:53:04.263Z,8.13
2022-08-26T20:55:34.179Z,8.57
2022-08-26T20:58:03.156Z,8.00
2022-08-26T21:00:32.090Z,8.20
2022-08-26T21:03:00.911Z,7.50
2022-08-26T21:05:31.303Z,7.77
2022-08-26T21:08:00.054Z,8.13
2022-08-26T21:10:30.613Z,7.27
2022-08-26T21:12:59.935Z,7.47
2022-08-26T21:15:28.846Z,6.83
2022-08-26T21:18:00.519Z,7.93
2022-08-26T21:20:31.232Z,7.10
2022-08-26T21:23:00.185Z,6.83
2022-08-26T21:25:29.711Z,6.97
2022-08-26T21:27:58.677Z,7.30
2022-08-26T21:30:27.533Z,7.57
2022-08-26T21:32:56.370Z,6.73
2022-08-26T21:35:25.287Z,7.70
2022-08-26T21:37:55.575Z,7.27
2022-08-26T21:40:24.763Z,8.93
2022-08-26T21:42:53.791Z,6.90
2022-08-26T21:45:23.604Z,7.10
2022-08-26T21:47:52.566Z,5.97
2022-08-26T21:50:21.871Z,7.30
2022-08-26T21:52:50.731Z,7.23
2022-08-26T21:55:21.449Z,6.90
2022-08-26T21:57:50.348Z,6.87
2022-08-26T22:00:20.226Z,7.23
2022-08-26T22:02:50.665Z,7.00
2022-08-26T22:05:21.820Z,8.70
2022-08-26T22:07:50.647Z,7.30
2022-08-26T22:10:21.426Z,7.37
2022-08-26T22:12:50.290Z,7.40
2022-08-26T22:15:23.551Z,7.73
2022-08-26T22:17:52.332Z,6.93
2022-08-26T22:20:21.317Z,8.00
2022-08-26T22:22:50.098Z,7.27
2022-08-26T22:25:19.129Z,7.93
2022-08-26T22:27:49.310Z,7.13
2022-08-26T22:30:20.082Z,6.90
2022-08-26T22:32:48.918Z,6.60
2022-08-26T22:35:28.706Z,7.77
2022-08-26T22:37:58.900Z,6.90
2022-08-26T22:40:27.763Z,7.93
2022-08-26T22:43:00.285Z,7.30
2022-08-26T22:45:31.678Z,7.30
2022-08-26T22:48:01.911Z,7.57
2022-08-26T22:50:31.071Z,7.30
2022-08-26T22:52:59.903Z,6.77
2022-08-26T22:55:28.850Z,7.17
2022-08-26T22:57:59.628Z,6.73
2022-08-26T23:00:32.046Z,7.37
2022-08-26T23:03:01.638Z,6.00
2022-08-26T23:05:31.239Z,7.53
2022-08-26T23:08:00.525Z,7.20
2022-08-26T23:10:29.305Z,6.60
2022-08-26T23:12:59.471Z,7.67
2022-08-26T23:15:28.427Z,6.70
2022-08-26T23:17:58.590Z,7.80
2022-08-26T23:20:28.580Z,7.80
2022-08-26T23:22:57.585Z,8.80
2022-08-26T23:25:27.099Z,7.63
2022-08-26T23:27:55.823Z,6.60
2022-08-26T23:30:28.072Z,7.33
2022-08-26T23:32:56.955Z,6.80
2022-08-26T23:35:25.333Z,7.80
2022-08-26T23:37:54.519Z,6.63
2022-08-26T23:40:28.818Z,7.73
2022-08-26T23:42:59.270Z,7.03
2022-08-26T23:45:30.321Z,7.60
2022-08-26T23:47:59.446Z,6.97
2022-08-26T23:50:50.470Z,8.10
2022-08-26T23:53:20.946Z,7.43
2022-08-26T23:55:52.028Z,6.97
2022-08-26T23:58:24.798Z,7.03
